sensor_id;sensor_type;location;lat;lon;timestamp;P1;durP1;ratioP1;P2;durP2;ratioP2
22468;SDS011;11401;50.792;4.352;2023-06-19T00:49:34;3.10;;;2.80;;
22468;SDS011;11401;50.792;4.352;2023-06-19T00:52:02;4.00;;;3.00;;
22468;SDS011;11401;50.792;4.352;2023-06-19T00:54:29;3.35;;;3.05;;
22468;SDS011;11401;50.792;4.352;2023-06-19T00:56:59;3.17;;;2.38;;
22468;SDS011;11401;50.792;4.352;2023-06-19T00:59:27;4.90;;;3.78;;
22468;SDS011;11401;50.792;4.352;2023-06-19T01:01:55;3.50;;;2.90;;
22468;SDS011;11401;50.792;4.352;2023-06-19T01:04:23;3.90;;;3.53;;
22468;SDS011;11401;50.792;4.352;2023-06-19T01:06:56;4.93;;;2.95;;
22468;SDS011;11401;50.792;4.352;2023-06-19T01:09:29;5.85;;;3.10;;
22468;SDS011;11401;50.792;4.352;2023-06-19T01:12:08;3.75;;;3.45;;
22468;SDS011;11401;50.792;4.352;2023-06-19T01:14:50;3.78;;;2.75;;
22468;SDS011;11401;50.792;4.352;2023-06-19T01:17:24;2.83;;;2.60;;
22468;SDS011;11401;50.792;4.352;2023-06-19T01:19:56;4.45;;;2.92;;
22468;SDS011;11401;50.792;4.352;2023-06-19T01:24:57;3.88;;;3.10;;
22468;SDS011;11401;50.792;4.352;2023-06-19T01:27:25;5.20;;;3.20;;
22468;SDS011;11401;50.792;4.352;2023-06-19T01:29:56;4.30;;;3.05;;
22468;SDS011;11401;50.792;4.352;2023-06-19T01:35:07;6.68;;;3.20;;
22468;SDS011;11401;50.792;4.352;2023-06-19T01:37:36;6.18;;;3.40;;
22468;SDS011;11401;50.792;4.352;2023-06-19T01:40:05;3.85;;;3.20;;
22468;SDS011;11401;50.792;4.352;2023-06-19T01:42:36;3.17;;;2.72;;
22468;SDS011;11401;50.792;4.352;2023-06-19T01:45:05;3.80;;;2.85;;
22468;SDS011;11401;50.792;4.352;2023-06-19T01:47:32;3.47;;;3.17;;
22468;SDS011;11401;50.792;4.352;2023-06-19T01:50:00;6.07;;;3.40;;
22468;SDS011;11401;50.792;4.352;2023-06-19T01:52:28;5.15;;;3.33;;
22468;SDS011;11401;50.792;4.352;2023-06-19T01:54:55;6.07;;;3.55;;
22468;SDS011;11401;50.792;4.352;2023-06-19T01:57:22;3.85;;;3.40;;
22468;SDS011;11401;50.792;4.352;2023-06-19T01:59:49;3.97;;;3.58;;
22468;SDS011;11401;50.792;4.352;2023-06-19T02:02:16;6.22;;;3.13;;
22468;SDS011;11401;50.792;4.352;2023-06-19T02:04:44;4.30;;;3.20;;
22468;SDS011;11401;50.792;4.352;2023-06-19T02:07:11;6.82;;;3.63;;
22468;SDS011;11401;50.792;4.352;2023-06-19T02:09:38;5.05;;;3.38;;
22468;SDS011;11401;50.792;4.352;2023-06-19T02:12:06;3.22;;;2.90;;
22468;SDS011;11401;50.792;4.352;2023-06-19T02:14:33;5.32;;;3.22;;
22468;SDS011;11401;50.792;4.352;2023-06-19T02:17:00;4.55;;;3.28;;
22468;SDS011;11401;50.792;4.352;2023-06-19T02:19:27;6.30;;;3.30;;
22468;SDS011;11401;50.792;4.352;2023-06-19T02:21:54;7.85;;;3.90;;
22468;SDS011;11401;50.792;4.352;2023-06-19T02:24:24;5.10;;;2.90;;
22468;SDS011;11401;50.792;4.352;2023-06-19T02:26:52;3.20;;;2.90;;
22468;SDS011;11401;50.792;4.352;2023-06-19T02:29:19;11.15;;;3.97;;
22468;SDS011;11401;50.792;4.352;2023-06-19T02:31:46;5.38;;;3.28;;
22468;SDS011;11401;50.792;4.352;2023-06-19T02:34:13;7.43;;;3.30;;
22468;SDS011;11401;50.792;4.352;2023-06-19T02:36:40;3.80;;;3.50;;
22468;SDS011;11401;50.792;4.352;2023-06-19T02:39:08;5.13;;;3.67;;
22468;SDS011;11401;50.792;4.352;2023-06-19T02:41:35;6.43;;;3.20;;
22468;SDS011;11401;50.792;4.352;2023-06-19T02:44:04;4.97;;;3.90;;
22468;SDS011;11401;50.792;4.352;2023-06-19T02:46:31;4.40;;;4.00;;
22468;SDS011;11401;50.792;4.352;2023-06-19T02:48:58;4.25;;;3.85;;
22468;SDS011;11401;50.792;4.352;2023-06-19T02:51:27;5.28;;;3.60;;
22468;SDS011;11401;50.792;4.352;2023-06-19T02:53:54;5.90;;;4.30;;
22468;SDS011;11401;50.792;4.352;2023-06-19T02:56:21;4.47;;;3.80;;
22468;SDS011;11401;50.792;4.352;2023-06-19T02:58:49;5.57;;;4.03;;
22468;SDS011;11401;50.792;4.352;2023-06-19T03:01:16;3.97;;;3.53;;
22468;SDS011;11401;50.792;4.352;2023-06-19T03:03:43;6.00;;;3.65;;
22468;SDS011;11401;50.792;4.352;2023-06-19T03:06:13;5.38;;;4.18;;
22468;SDS011;11401;50.792;4.352;2023-06-19T03:08:40;6.53;;;4.43;;
22468;SDS011;11401;50.792;4.352;2023-06-19T03:11:07;5.15;;;3.83;;
22468;SDS011;11401;50.792;4.352;2023-06-19T03:13:44;8.55;;;4.22;;
22468;SDS011;11401;50.792;4.352;2023-06-19T03:16:13;5.45;;;3.97;;
22468;SDS011;11401;50.792;4.352;2023-06-19T03:18:42;3.92;;;3.30;;
22468;SDS011;11401;50.792;4.352;2023-06-19T03:21:12;4.85;;;3.17;;
22468;SDS011;11401;50.792;4.352;2023-06-19T03:23:41;5.45;;;4.30;;
22468;SDS011;11401;50.792;4.352;2023-06-19T03:26:08;4.13;;;3.63;;
22468;SDS011;11401;50.792;4.352;2023-06-19T03:28:41;4.97;;;4.18;;
22468;SDS011;11401;50.792;4.352;2023-06-19T03:31:09;4.65;;;4.03;;
22468;SDS011;11401;50.792;4.352;2023-06-19T03:33:36;5.75;;;3.97;;
22468;SDS011;11401;50.792;4.352;2023-06-19T03:36:03;5.18;;;4.68;;
22468;SDS011;11401;50.792;4.352;2023-06-19T03:38:47;9.05;;;5.70;;
22468;SDS011;11401;50.792;4.352;2023-06-19T03:41:18;6.45;;;5.57;;
22468;SDS011;11401;50.792;4.352;2023-06-19T03:43:46;5.90;;;5.25;;
22468;SDS011;11401;50.792;4.352;2023-06-19T03:46:13;5.90;;;5.22;;
22468;SDS011;11401;50.792;4.352;2023-06-19T03:48:40;6.93;;;5.88;;
22468;SDS011;11401;50.792;4.352;2023-06-19T03:51:07;5.78;;;5.18;;
22468;SDS011;11401;50.792;4.352;2023-06-19T03:53:34;9.43;;;5.93;;
22468;SDS011;11401;50.792;4.352;2023-06-19T03:56:01;8.85;;;5.75;;
22468;SDS011;11401;50.792;4.352;2023-06-19T03:58:28;4.65;;;4.25;;
22468;SDS011;11401;50.792;4.352;2023-06-19T04:00:55;7.75;;;5.32;;
22468;SDS011;11401;50.792;4.352;2023-06-19T04:03:22;7.68;;;5.97;;
22468;SDS011;11401;50.792;4.352;2023-06-19T04:05:50;6.07;;;4.30;;
22468;SDS011;11401;50.792;4.352;2023-06-19T04:08:17;5.30;;;4.80;;
22468;SDS011;11401;50.792;4.352;2023-06-19T04:10:44;8.93;;;5.97;;
22468;SDS011;11401;50.792;4.352;2023-06-19T04:13:11;10.13;;;6.03;;
22468;SDS011;11401;50.792;4.352;2023-06-19T04:15:38;6.05;;;5.45;;
22468;SDS011;11401;50.792;4.352;2023-06-19T04:18:05;7.82;;;6.72;;
22468;SDS011;11401;50.792;4.352;2023-06-19T04:20:33;9.77;;;6.82;;
22468;SDS011;11401;50.792;4.352;2023-06-19T04:23:00;10.13;;;7.30;;
22468;SDS011;11401;50.792;4.352;2023-06-19T04:25:27;9.95;;;7.07;;
22468;SDS011;11401;50.792;4.352;2023-06-19T04:27:55;9.13;;;7.78;;
22468;SDS011;11401;50.792;4.352;2023-06-19T04:30:22;8.70;;;5.93;;
22468;SDS011;11401;50.792;4.352;2023-06-19T04:32:49;8.20;;;6.55;;
22468;SDS011;11401;50.792;4.352;2023-06-19T04:35:19;13.43;;;7.38;;
22468;SDS011;11401;50.792;4.352;2023-06-19T04:37:46;15.52;;;8.02;;
22468;SDS011;11401;50.792;4.352;2023-06-19T04:40:15;9.43;;;7.60;;
22468;SDS011;11401;50.792;4.352;2023-06-19T04:42:42;11.07;;;7.38;;
22468;SDS011;11401;50.792;4.352;2023-06-19T04:45:10;10.77;;;8.07;;
22468;SDS011;11401;50.792;4.352;2023-06-19T04:47:37;9.95;;;7.95;;
22468;SDS011;11401;50.792;4.352;2023-06-19T04:50:19;13.75;;;7.47;;
22468;SDS011;11401;50.792;4.352;2023-06-19T04:52:48;9.38;;;8.07;;
22468;SDS011;11401;50.792;4.352;2023-06-19T04:55:17;8.20;;;6.15;;
22468;SDS011;11401;50.792;4.352;2023-06-19T04:57:44;9.27;;;6.32;;
22468;SDS011;11401;50.792;4.352;2023-06-19T05:00:12;8.73;;;6.30;;
22468;SDS011;11401;50.792;4.352;2023-06-19T05:02:41;8.57;;;6.30;;
22468;SDS011;11401;50.792;4.352;2023-06-19T05:05:10;8.38;;;5.97;;
22468;SDS011;11401;50.792;4.352;2023-06-19T05:07:37;12.20;;;6.55;;
22468;SDS011;11401;50.792;4.352;2023-06-19T05:10:05;5.22;;;4.70;;
22468;SDS011;11401;50.792;4.352;2023-06-19T05:12:33;9.25;;;5.88;;
22468;SDS011;11401;50.792;4.352;2023-06-19T05:15:01;5.20;;;4.65;;
22468;SDS011;11401;50.792;4.352;2023-06-19T05:17:29;7.78;;;4.80;;
22468;SDS011;11401;50.792;4.352;2023-06-19T05:19:56;6.68;;;5.00;;
22468;SDS011;11401;50.792;4.352;2023-06-19T05:22:23;9.93;;;5.75;;
22468;SDS011;11401;50.792;4.352;2023-06-19T05:24:50;10.38;;;5.45;;
22468;SDS011;11401;50.792;4.352;2023-06-19T05:27:17;6.28;;;4.85;;
22468;SDS011;11401;50.792;4.352;2023-06-19T05:29:44;5.30;;;4.10;;
22468;SDS011;11401;50.792;4.352;2023-06-19T05:32:11;10.00;;;5.63;;
22468;SDS011;11401;50.792;4.352;2023-06-19T05:34:39;8.63;;;5.70;;
22468;SDS011;11401;50.792;4.352;2023-06-19T05:37:06;10.27;;;5.22;;
22468;SDS011;11401;50.792;4.352;2023-06-19T05:39:33;5.90;;;4.30;;
22468;SDS011;11401;50.792;4.352;2023-06-19T05:42:00;5.50;;;5.00;;
22468;SDS011;11401;50.792;4.352;2023-06-19T05:44:28;8.50;;;7.05;;
22468;SDS011;11401;50.792;4.352;2023-06-19T05:46:55;7.03;;;4.68;;
22468;SDS011;11401;50.792;4.352;2023-06-19T05:49:22;8.82;;;5.78;;
22468;SDS011;11401;50.792;4.352;2023-06-19T05:51:49;6.43;;;4.93;;
22468;SDS011;11401;50.792;4.352;2023-06-19T05:54:16;4.22;;;3.17;;
22468;SDS011;11401;50.792;4.352;2023-06-19T05:56:44;5.82;;;3.67;;
22468;SDS011;11401;50.792;4.352;2023-06-19T05:59:11;12.43;;;8.23;;
22468;SDS011;11401;50.792;4.352;2023-06-19T06:01:41;24.17;;;8.73;;
22468;SDS011;11401;50.792;4.352;2023-06-19T06:04:08;12.93;;;8.68;;
22468;SDS011;11401;50.792;4.352;2023-06-19T06:06:36;11.68;;;8.57;;
22468;SDS011;11401;50.792;4.352;2023-06-19T06:09:03;10.20;;;8.25;;
22468;SDS011;11401;50.792;4.352;2023-06-19T06:11:30;15.85;;;8.93;;
22468;SDS011;11401;50.792;4.352;2023-06-19T06:13:57;19.02;;;10.50;;
22468;SDS011;11401;50.792;4.352;2023-06-19T06:16:24;9.68;;;8.48;;
22468;SDS011;11401;50.792;4.352;2023-06-19T06:18:51;14.15;;;10.45;;
22468;SDS011;11401;50.792;4.352;2023-06-19T06:21:18;13.90;;;10.15;;
